1859 NOT_NAMED (1859042S32050)


IBTrACS version v04r00. Visit IBTrACS website for data access.
Please direct all questions to the IBTrACS Q and A forum

Storm track - Intensity - Wind Radii - Intensity Data - Source Data - All data

Summary Information

Storm ID 1859042S32050
Start Feb 11 06Z
End Feb 17 06Z
ATCF IDs
Track status Best track data.

Storm track plot

Map of storm track

Intensity plots

No Intensity information for this storm


Radial wind information

No radial wind information for this storm


Position and Intensity Table

BASIN ISO_TIME_________ NATURE LAT LON
degrees north degrees east
SI 1859-02-11 06:00:00 NR -31.60 50.40
SI 09:00:00 NR -31.61 50.55
SI 12:00:00 NR -31.63 50.70
SI 15:00:00 NR -31.64 50.86
SI 18:00:00 NR -31.66 51.01
SI 21:00:00 NR -31.69 51.17
SI 1859-02-12 00:00:00 NR -31.72 51.34
SI 03:00:00 NR -31.75 51.52
SI 06:00:00 NR -31.80 51.70
SI 09:00:00 NR -31.85 51.89
SI 12:00:00 NR -31.92 52.09
SI 15:00:00 NR -31.99 52.29
SI 18:00:00 NR -32.06 52.50
SI 21:00:00 NR -32.14 52.71
SI 1859-02-13 00:00:00 NR -32.23 52.91
SI 03:00:00 NR -32.31 53.11
SI 06:00:00 NR -32.40 53.30
SI 09:00:00 NR -32.48 53.47
SI 12:00:00 NR -32.57 53.64
SI 15:00:00 NR -32.66 53.80
SI 18:00:00 NR -32.75 53.96
SI 21:00:00 NR -32.84 54.12
SI 1859-02-14 00:00:00 NR -32.93 54.27
SI 03:00:00 NR -33.01 54.43
SI 06:00:00 NR -33.10 54.60
SI 09:00:00 NR -33.18 54.78
SI 12:00:00 NR -33.25 54.97
SI 15:00:00 NR -33.32 55.15
SI 18:00:00 NR -33.39 55.34
SI 21:00:00 NR -33.46 55.53
SI 1859-02-15 00:00:00 NR -33.54 55.72
SI 03:00:00 NR -33.62 55.91
SI 06:00:00 NR -33.70 56.10
SI 09:00:00 NR -33.79 56.27
SI 12:00:00 NR -33.88 56.44
SI 15:00:00 NR -33.97 56.61
SI 18:00:00 NR -34.07 56.78
SI 21:00:00 NR -34.17 56.95
SI 1859-02-16 00:00:00 NR -34.28 57.13
SI 03:00:00 NR -34.39 57.31
SI 06:00:00 NR -34.50 57.50
SI 09:00:00 NR -34.62 57.70
SI 12:00:00 NR -34.74 57.91
SI 15:00:00 NR -34.86 58.13
SI 18:00:00 NR -34.99 58.35
SI 21:00:00 NR -35.11 58.59
SI 1859-02-17 00:00:00 NR -35.24 58.82
SI 03:00:00 NR -35.37 59.06
SI 06:00:00 NR -35.50 59.30

Source Information

Agency Information
USA
TOKYO
CMA
HKO
NEWDELHI
REUNION WMO-Best-Tracks.txt:Line=192:xxxx859029
BOM
NADI
WELLINGTON
DS824
TD9636
TD9635
NEUMANN
MLC

All available IBTrACS Data

SEASON BASIN SUBBASIN ISO_TIME_________ NATURE LAT LON WMO AGENCY DIST2LAND LANDFALL IFLAG USA SSHS REUNION LAT REUNION LON REUNION TYPE REUNION TNUM STORM SPEED STORM DIR
Year degrees north degrees east km km 1 degrees north degrees east 1 kts degrees
1859 SI MM 1859-02-11 06:00:00 NR -31.60 50.40 reunion 796 796 _____O________ -1 -31.60 50.40 99 9.90 3 96
1859 SI MM 09:00:00 NR -31.61 50.55 805 805 _____P________ -1 -31.61 50.55 99 3 96
1859 SI MM 12:00:00 NR -31.63 50.70 809 809 _____P________ -1 -31.63 50.70 99 3 97
1859 SI MM 15:00:00 NR -31.64 50.86 818 818 _____P________ -1 -31.64 50.86 99 3 98
1859 SI MM 18:00:00 NR -31.66 51.01 833 833 _____P________ -1 -31.66 51.01 99 3 99
1859 SI MM 21:00:00 NR -31.69 51.17 843 843 _____P________ -1 -31.69 51.17 99 3 101
1859 SI MM 1859-02-12 00:00:00 NR -31.72 51.34 847 847 _____P________ -1 -31.72 51.34 99 3 103
1859 SI MM 03:00:00 NR -31.75 51.52 867 867 _____P________ -1 -31.75 51.52 99 3 105
1859 SI MM 06:00:00 NR -31.80 51.70 reunion 877 877 _____O________ -1 -31.80 51.70 99 9.90 3 107
1859 SI MM 09:00:00 NR -31.85 51.89 896 896 _____P________ -1 -31.85 51.89 99 4 109
1859 SI MM 12:00:00 NR -31.92 52.09 907 907 _____P________ -1 -31.92 52.09 99 4 111
1859 SI MM 15:00:00 NR -31.99 52.29 927 927 _____P________ -1 -31.99 52.29 99 4 113
1859 SI MM 18:00:00 NR -32.06 52.50 947 947 _____P________ -1 -32.06 52.50 99 4 114
1859 SI MM 21:00:00 NR -32.14 52.71 958 958 _____P________ -1 -32.14 52.71 99 4 115
1859 SI MM 1859-02-13 00:00:00 NR -32.23 52.91 978 978 _____P________ -1 -32.23 52.91 99 4 117
1859 SI MM 03:00:00 NR -32.31 53.11 999 999 _____P________ -1 -32.31 53.11 99 4 118
1859 SI MM 06:00:00 NR -32.40 53.30 reunion 1019 1019 _____O________ -1 -32.40 53.30 99 9.90 4 119
1859 SI MM 09:00:00 NR -32.48 53.47 1039 1039 _____P________ -1 -32.48 53.47 99 3 121
1859 SI MM 12:00:00 NR -32.57 53.64 1054 1054 _____P________ -1 -32.57 53.64 99 3 122
1859 SI MM 15:00:00 NR -32.66 53.80 1074 1074 _____P________ -1 -32.66 53.80 99 3 124
1859 SI MM 18:00:00 NR -32.75 53.96 1086 1086 _____P________ -1 -32.75 53.96 99 3 124
1859 SI MM 21:00:00 NR -32.84 54.12 1101 1101 _____P________ -1 -32.84 54.12 99 3 124
1859 SI MM 1859-02-14 00:00:00 NR -32.93 54.27 1122 1122 _____P________ -1 -32.93 54.27 99 3 123
1859 SI MM 03:00:00 NR -33.01 54.43 1136 1136 _____P________ -1 -33.01 54.43 99 3 122
1859 SI MM 06:00:00 NR -33.10 54.60 reunion 1157 1157 _____O________ -1 -33.10 54.60 99 9.90 3 119
1859 SI MM 09:00:00 NR -33.18 54.78 1177 1177 _____P________ -1 -33.18 54.78 99 3 116
1859 SI MM 12:00:00 NR -33.25 54.97 1190 1190 _____P________ -1 -33.25 54.97 99 3 115
1859 SI MM 15:00:00 NR -33.32 55.15 1211 1211 _____P________ -1 -33.32 55.15 99 3 114
1859 SI MM 18:00:00 NR -33.39 55.34 1225 1225 _____P________ -1 -33.39 55.34 99 3 114
1859 SI MM 21:00:00 NR -33.46 55.53 1246 1246 _____P________ -1 -33.46 55.53 99 4 115
1859 SI MM 1859-02-15 00:00:00 NR -33.54 55.72 1259 1259 _____P________ -1 -33.54 55.72 99 4 116
1859 SI MM 03:00:00 NR -33.62 55.91 1280 1280 _____P________ -1 -33.62 55.91 99 4 117
1859 SI MM 06:00:00 NR -33.70 56.10 reunion 1301 1301 _____O________ -1 -33.70 56.10 99 9.90 3 120
1859 SI MM 09:00:00 NR -33.79 56.27 1322 1322 _____P________ -1 -33.79 56.27 99 3 122
1859 SI MM 12:00:00 NR -33.88 56.44 1336 1336 _____P________ -1 -33.88 56.44 99 3 123
1859 SI MM 15:00:00 NR -33.97 56.61 1357 1357 _____P________ -1 -33.97 56.61 99 3 124
1859 SI MM 18:00:00 NR -34.07 56.78 1378 1378 _____P________ -1 -34.07 56.78 99 3 125
1859 SI MM 21:00:00 NR -34.17 56.95 1399 1399 _____P________ -1 -34.17 56.95 99 4 126
1859 SI MM 1859-02-16 00:00:00 NR -34.28 57.13 1413 1413 _____P________ -1 -34.28 57.13 99 4 126
1859 SI MM 03:00:00 NR -34.39 57.31 1434 1434 _____P________ -1 -34.39 57.31 99 4 126
1859 SI MM 06:00:00 NR -34.50 57.50 reunion 1455 1455 _____O________ -1 -34.50 57.50 99 9.90 4 126
1859 SI MM 09:00:00 NR -34.62 57.70 1476 1476 _____P________ -1 -34.62 57.70 99 4 125
1859 SI MM 12:00:00 NR -34.74 57.91 1497 1497 _____P________ -1 -34.74 57.91 99 4 125
1859 SI MM 15:00:00 NR -34.86 58.13 1526 1526 _____P________ -1 -34.86 58.13 99 4 124
1859 SI MM 18:00:00 NR -34.99 58.35 1542 1542 _____P________ -1 -34.99 58.35 99 5 124
1859 SI MM 21:00:00 NR -35.11 58.59 1557 1557 _____P________ -1 -35.11 58.59 99 5 124
1859 SI MM 1859-02-17 00:00:00 NR -35.24 58.82 1571 1571 _____P________ -1 -35.24 58.82 99 5 124
1859 SI MM 03:00:00 NR -35.37 59.06 1599 1599 _____P________ -1 -35.37 59.06 99 5 123
1859 SI MM 06:00:00 NR -35.50 59.30 reunion 1614 _____O________ -1 -35.50 59.30 99 9.90 5 123